sensor_id;sensor_type;location;lat;lon;timestamp;pressure;altitude;pressure_sealevel;temperature;humidity
5877;BME280;2964;42.144;24.730;2022-07-30T00:00:45;147962.00;;;25.80;51.58
5877;BME280;2964;42.144;24.730;2022-07-30T00:03:12;147954.41;;;25.77;51.84
5877;BME280;2964;42.144;24.730;2022-07-30T00:05:38;147950.59;;;25.75;51.59
5877;BME280;2964;42.144;24.730;2022-07-30T00:08:07;147962.00;;;25.80;51.76
5877;BME280;2964;42.144;24.730;2022-07-30T00:10:33;147884.53;;;25.49;52.57
5877;BME280;2964;42.144;24.730;2022-07-30T00:13:00;147899.78;;;25.55;52.62
5877;BME280;2964;42.144;24.730;2022-07-30T00:15:27;147860.41;;;25.39;51.88
5877;BME280;2964;42.144;24.730;2022-07-30T00:17:53;147958.22;;;25.78;52.16
5877;BME280;2964;42.144;24.730;2022-07-30T00:20:20;147888.34;;;25.50;52.87
5877;BME280;2964;42.144;24.730;2022-07-30T00:22:47;147819.72;;;25.22;53.47
5877;BME280;2964;42.144;24.730;2022-07-30T00:25:16;147870.56;;;25.43;53.38
5877;BME280;2964;42.144;24.730;2022-07-30T00:27:43;147809.59;;;25.18;54.63
5877;BME280;2964;42.144;24.730;2022-07-30T00:30:11;147902.31;;;25.56;53.21
5877;BME280;2964;42.144;24.730;2022-07-30T00:32:37;147855.34;;;25.37;53.13
5877;BME280;2964;42.144;24.730;2022-07-30T00:35:05;147810.84;;;25.19;54.55
5877;BME280;2964;42.144;24.730;2022-07-30T00:37:32;147751.19;;;24.95;55.33
5877;BME280;2964;42.144;24.730;2022-07-30T00:39:59;147842.63;;;25.32;54.52
5877;BME280;2964;42.144;24.730;2022-07-30T00:42:38;147725.84;;;24.84;55.20
5877;BME280;2964;42.144;24.730;2022-07-30T00:45:06;147758.81;;;24.98;55.83
5877;BME280;2964;42.144;24.730;2022-07-30T00:47:33;147771.53;;;25.03;56.06
5877;BME280;2964;42.144;24.730;2022-07-30T00:50:00;147791.81;;;25.11;55.67
5877;BME280;2964;42.144;24.730;2022-07-30T00:52:28;147774.03;;;25.04;56.32
5877;BME280;2964;42.144;24.730;2022-07-30T00:54:55;147760.06;;;24.98;56.41
5877;BME280;2964;42.144;24.730;2022-07-30T00:57:22;147747.38;;;24.93;56.70
5877;BME280;2964;42.144;24.730;2022-07-30T00:59:50;147722.00;;;24.83;57.25
5877;BME280;2964;42.144;24.730;2022-07-30T01:02:17;147696.59;;;24.73;57.75
5877;BME280;2964;42.144;24.730;2022-07-30T01:04:43;147715.63;;;24.80;57.76
5877;BME280;2964;42.144;24.730;2022-07-30T01:07:10;147673.78;;;24.63;58.45
5877;BME280;2964;42.144;24.730;2022-07-30T01:09:37;147610.25;;;24.38;59.13
5877;BME280;2964;42.144;24.730;2022-07-30T01:12:04;147557.00;;;24.16;60.00
5877;BME280;2964;42.144;24.730;2022-07-30T01:14:33;147560.78;;;24.18;59.87
5877;BME280;2964;42.144;24.730;2022-07-30T01:17:02;147560.78;;;24.18;61.55
5877;BME280;2964;42.144;24.730;2022-07-30T01:19:32;147568.41;;;24.21;60.94
5877;BME280;2964;42.144;24.730;2022-07-30T01:22:23;147573.47;;;24.23;60.36
5877;BME280;2964;42.144;24.730;2022-07-30T01:24:57;147579.84;;;24.25;60.23
5877;BME280;2964;42.144;24.730;2022-07-30T01:27:27;147554.44;;;24.15;60.78
5877;BME280;2964;42.144;24.730;2022-07-30T01:29:55;147570.97;;;24.22;60.47
5877;BME280;2964;42.144;24.730;2022-07-30T01:32:24;147606.44;;;24.36;59.73
5877;BME280;2964;42.144;24.730;2022-07-30T01:34:52;147517.66;;;24.00;60.74
5877;BME280;2964;42.144;24.730;2022-07-30T01:37:21;147482.13;;;23.86;61.10
5877;BME280;2964;42.144;24.730;2022-07-30T01:39:50;147479.63;;;23.85;61.27
5877;BME280;2964;42.144;24.730;2022-07-30T01:42:18;147474.50;;;23.83;60.98
5877;BME280;2964;42.144;24.730;2022-07-30T01:44:47;147484.69;;;23.87;60.77
5877;BME280;2964;42.144;24.730;2022-07-30T01:47:15;147447.88;;;23.72;60.87
5877;BME280;2964;42.144;24.730;2022-07-30T01:49:44;147385.72;;;23.47;61.25
5877;BME280;2964;42.144;24.730;2022-07-30T01:52:13;147340.06;;;23.28;62.27
5877;BME280;2964;42.144;24.730;2022-07-30T01:54:43;147281.72;;;23.05;62.51
5877;BME280;2964;42.144;24.730;2022-07-30T01:57:12;147288.09;;;23.07;63.15
5877;BME280;2964;42.144;24.730;2022-07-30T01:59:40;147299.50;;;23.12;62.96
5877;BME280;2964;42.144;24.730;2022-07-30T02:02:10;147411.09;;;23.57;61.31
5877;BME280;2964;42.144;24.730;2022-07-30T02:04:37;147350.19;;;23.32;62.21
5877;BME280;2964;42.144;24.730;2022-07-30T02:07:09;147398.41;;;23.52;61.36
5877;BME280;2964;42.144;24.730;2022-07-30T02:09:52;147383.16;;;23.46;61.75
5877;BME280;2964;42.144;24.730;2022-07-30T02:12:20;147319.78;;;23.20;62.97
5877;BME280;2964;42.144;24.730;2022-07-30T02:14:56;147251.25;;;22.92;63.69
5877;BME280;2964;42.144;24.730;2022-07-30T02:17:29;147263.94;;;22.98;63.78
5877;BME280;2964;42.144;24.730;2022-07-30T02:19:58;147312.16;;;23.17;62.92
5877;BME280;2964;42.144;24.730;2022-07-30T02:22:32;147299.50;;;23.12;63.34
5877;BME280;2964;42.144;24.730;2022-07-30T02:25:03;147324.88;;;23.22;63.29
5877;BME280;2964;42.144;24.730;2022-07-30T02:27:32;147246.19;;;22.90;64.65
5877;BME280;2964;42.144;24.730;2022-07-30T02:30:01;147219.59;;;22.80;65.23
5877;BME280;2964;42.144;24.730;2022-07-30T02:32:36;147234.78;;;22.86;64.78
5877;BME280;2964;42.144;24.730;2022-07-30T02:35:08;147200.56;;;22.72;65.64
5877;BME280;2964;42.144;24.730;2022-07-30T02:37:37;147261.41;;;22.97;64.62
5877;BME280;2964;42.144;24.730;2022-07-30T02:40:06;147288.09;;;23.07;64.37
5877;BME280;2964;42.144;24.730;2022-07-30T02:42:34;147269.00;;;23.00;64.37
5877;BME280;2964;42.144;24.730;2022-07-30T02:45:02;147230.97;;;22.84;65.57
5877;BME280;2964;42.144;24.730;2022-07-30T02:47:31;147203.09;;;22.73;66.08
5877;BME280;2964;42.144;24.730;2022-07-30T02:49:59;147190.41;;;22.68;66.88
5877;BME280;2964;42.144;24.730;2022-07-30T02:52:27;147180.28;;;22.64;66.90
5877;BME280;2964;42.144;24.730;2022-07-30T02:54:55;147165.09;;;22.58;67.29
5877;BME280;2964;42.144;24.730;2022-07-30T02:57:22;147137.19;;;22.46;67.33
5877;BME280;2964;42.144;24.730;2022-07-30T02:59:50;147172.66;;;22.61;66.90
5877;BME280;2964;42.144;24.730;2022-07-30T03:02:19;147206.91;;;22.74;66.03
5877;BME280;2964;42.144;24.730;2022-07-30T03:04:49;147161.28;;;22.56;66.76
5877;BME280;2964;42.144;24.730;2022-07-30T03:07:17;147137.19;;;22.46;67.04
5877;BME280;2964;42.144;24.730;2022-07-30T03:09:46;147101.72;;;22.32;67.58
5877;BME280;2964;42.144;24.730;2022-07-30T03:12:13;147087.81;;;22.26;67.95
5877;BME280;2964;42.144;24.730;2022-07-30T03:14:40;147023.09;;;22.00;68.38
5877;BME280;2964;42.144;24.730;2022-07-30T03:17:07;147101.72;;;22.32;68.33
5877;BME280;2964;42.144;24.730;2022-07-30T03:19:36;147118.19;;;22.39;68.32
5877;BME280;2964;42.144;24.730;2022-07-30T03:22:07;147071.25;;;22.20;68.77
5877;BME280;2964;42.144;24.730;2022-07-30T03:24:37;147096.69;;;22.30;69.47
5877;BME280;2964;42.144;24.730;2022-07-30T03:27:05;147134.66;;;22.45;68.69
5877;BME280;2964;42.144;24.730;2022-07-30T03:29:33;147142.28;;;22.48;68.31
5877;BME280;2964;42.144;24.730;2022-07-30T03:32:01;147170.16;;;22.60;67.86
5877;BME280;2964;42.144;24.730;2022-07-30T03:34:31;147128.31;;;22.43;68.53
5877;BME280;2964;42.144;24.730;2022-07-30T03:36:59;147062.41;;;22.16;69.46
5877;BME280;2964;42.144;24.730;2022-07-30T03:39:27;147071.25;;;22.20;69.95
5877;BME280;2964;42.144;24.730;2022-07-30T03:41:55;147092.88;;;22.28;69.08
5877;BME280;2964;42.144;24.730;2022-07-30T03:44:22;147144.78;;;22.49;68.70
5877;BME280;2964;42.144;24.730;2022-07-30T03:46:50;147198.03;;;22.71;68.25
5877;BME280;2964;42.144;24.730;2022-07-30T03:49:17;147215.78;;;22.78;66.85
5877;BME280;2964;42.144;24.730;2022-07-30T03:51:44;147246.19;;;22.90;66.56
5877;BME280;2964;42.144;24.730;2022-07-30T03:54:12;147269.00;;;23.00;66.54
5877;BME280;2964;42.144;24.730;2022-07-30T03:56:40;147243.66;;;22.89;67.44
5877;BME280;2964;42.144;24.730;2022-07-30T03:59:08;147113.13;;;22.36;69.20
5877;BME280;2964;42.144;24.730;2022-07-30T04:01:35;147146.06;;;22.50;70.04
5877;BME280;2964;42.144;24.730;2022-07-30T04:04:06;147180.28;;;22.64;69.48
5877;BME280;2964;42.144;24.730;2022-07-30T04:06:33;147253.81;;;22.93;68.15
5877;BME280;2964;42.144;24.730;2022-07-30T04:09:04;147302.03;;;23.13;66.97
5877;BME280;2964;42.144;24.730;2022-07-30T04:11:31;147312.16;;;23.17;66.78
5877;BME280;2964;42.144;24.730;2022-07-30T04:13:59;147271.56;;;23.01;67.49
5877;BME280;2964;42.144;24.730;2022-07-30T04:16:30;147223.38;;;22.81;68.57
5877;BME280;2964;42.144;24.730;2022-07-30T04:19:03;147256.34;;;22.94;67.96
5877;BME280;2964;42.144;24.730;2022-07-30T04:21:34;147286.78;;;23.07;67.97
5877;BME280;2964;42.144;24.730;2022-07-30T04:24:02;147279.22;;;23.04;66.50
5877;BME280;2964;42.144;24.730;2022-07-30T04:26:30;147367.94;;;23.40;65.98
5877;BME280;2964;42.144;24.730;2022-07-30T04:29:00;147309.63;;;23.16;65.92
5877;BME280;2964;42.144;24.730;2022-07-30T04:31:28;147257.59;;;22.95;66.83
5877;BME280;2964;42.144;24.730;2022-07-30T04:34:00;147274.06;;;23.02;66.93
5877;BME280;2964;42.144;24.730;2022-07-30T04:36:27;147431.38;;;23.65;65.21
5877;BME280;2964;42.144;24.730;2022-07-30T04:38:57;147441.50;;;23.69;64.50
5877;BME280;2964;42.144;24.730;2022-07-30T04:41:25;147504.97;;;23.95;63.58
5877;BME280;2964;42.144;24.730;2022-07-30T04:43:52;147751.19;;;24.95;60.70
5877;BME280;2964;42.144;24.730;2022-07-30T04:46:23;148059.88;;;26.19;56.30
5877;BME280;2964;42.144;24.730;2022-07-30T04:48:50;148153.88;;;26.57;54.15
5877;BME280;2964;42.144;24.730;2022-07-30T04:51:25;148384.06;;;27.50;50.59
5877;BME280;2964;42.144;24.730;2022-07-30T04:53:54;148288.66;;;27.12;53.56
5877;BME280;2964;42.144;24.730;2022-07-30T04:56:23;148550.66;;;28.18;50.39
5877;BME280;2964;42.144;24.730;2022-07-30T04:58:51;148852.34;;;29.39;47.65
5877;BME280;2964;42.144;24.730;2022-07-30T05:01:23;149011.53;;;30.03;45.07
5877;BME280;2964;42.144;24.730;2022-07-30T05:03:51;148903.25;;;29.60;48.06
5877;BME280;2964;42.144;24.730;2022-07-30T05:06:19;148938.94;;;29.74;46.38
5877;BME280;2964;42.144;24.730;2022-07-30T05:08:47;149007.72;;;30.02;46.16
5877;BME280;2964;42.144;24.730;2022-07-30T05:11:14;149242.16;;;30.96;44.34
5877;BME280;2964;42.144;24.730;2022-07-30T05:13:41;149416.78;;;31.67;42.15
5877;BME280;2964;42.144;24.730;2022-07-30T05:16:08;149415.53;;;31.66;41.64
5877;BME280;2964;42.144;24.730;2022-07-30T05:18:37;149517.53;;;32.07;41.68
5877;BME280;2964;42.144;24.730;2022-07-30T05:21:04;149372.22;;;31.49;41.84
5877;BME280;2964;42.144;24.730;2022-07-30T05:23:31;149308.44;;;31.23;43.33
5877;BME280;2964;42.144;24.730;2022-07-30T05:25:58;149051.03;;;30.19;44.32
5877;BME280;2964;42.144;24.730;2022-07-30T05:28:24;149156.78;;;30.62;44.03
5877;BME280;2964;42.144;24.730;2022-07-30T05:30:52;149166.97;;;30.66;41.86
5877;BME280;2964;42.144;24.730;2022-07-30T05:33:18;149086.69;;;30.34;43.53
5877;BME280;2964;42.144;24.730;2022-07-30T05:35:47;149369.66;;;31.48;42.40
5877;BME280;2964;42.144;24.730;2022-07-30T05:38:15;149469.09;;;31.88;41.06
5877;BME280;2964;42.144;24.730;2022-07-30T05:40:42;149892.63;;;33.58;38.29
5877;BME280;2964;42.144;24.730;2022-07-30T05:43:10;149573.69;;;32.30;40.13
5877;BME280;2964;42.144;24.730;2022-07-30T05:45:37;149844.19;;;33.39;39.09
5877;BME280;2964;42.144;24.730;2022-07-30T05:48:04;149707.63;;;32.84;38.03
5877;BME280;2964;42.144;24.730;2022-07-30T05:50:31;149961.59;;;33.86;36.82
5877;BME280;2964;42.144;24.730;2022-07-30T05:52:59;149765.00;;;33.07;38.22
5877;BME280;2964;42.144;24.730;2022-07-30T05:55:26;149905.41;;;33.63;37.88
5877;BME280;2964;42.144;24.730;2022-07-30T05:57:53;150600.38;;;36.43;32.25
5877;BME280;2964;42.144;24.730;2022-07-30T06:00:20;150720.63;;;36.91;32.28
5877;BME280;2964;42.144;24.730;2022-07-30T06:02:46;150987.97;;;37.98;30.77
5877;BME280;2964;42.144;24.730;2022-07-30T06:05:13;150899.72;;;37.63;29.64
5877;BME280;2964;42.144;24.730;2022-07-30T06:07:40;150817.84;;;37.30;31.38
5877;BME280;2964;42.144;24.730;2022-07-30T06:10:09;151191.44;;;38.80;29.66
5877;BME280;2964;42.144;24.730;2022-07-30T06:12:35;150461.06;;;35.87;32.94
5877;BME280;2964;42.144;24.730;2022-07-30T06:15:03;149854.38;;;33.43;35.53
5877;BME280;2964;42.144;24.730;2022-07-30T06:17:30;150162.06;;;34.67;34.87
5877;BME280;2964;42.144;24.730;2022-07-30T06:19:58;150808.88;;;37.26;31.43
5877;BME280;2964;42.144;24.730;2022-07-30T06:22:25;150319.22;;;35.30;32.78
5877;BME280;2964;42.144;24.730;2022-07-30T06:24:52;150559.53;;;36.26;32.36
5877;BME280;2964;42.144;24.730;2022-07-30T06:27:20;150610.66;;;36.47;32.31
5877;BME280;2964;42.144;24.730;2022-07-30T06:29:46;150981.53;;;37.96;29.46
5877;BME280;2964;42.144;24.730;2022-07-30T06:32:13;150361.38;;;35.47;30.86
5877;BME280;2964;42.144;24.730;2022-07-30T06:34:40;150444.50;;;35.80;32.66
5877;BME280;2964;42.144;24.730;2022-07-30T06:37:06;150633.66;;;36.56;29.58
5877;BME280;2964;42.144;24.730;2022-07-30T06:39:33;150822.94;;;37.32;30.61
5877;BME280;2964;42.144;24.730;2022-07-30T06:42:00;150860.00;;;37.47;29.97
5877;BME280;2964;42.144;24.730;2022-07-30T06:44:28;151007.13;;;38.06;29.33
5877;BME280;2964;42.144;24.730;2022-07-30T06:46:55;150961.09;;;37.88;28.51
5877;BME280;2964;42.144;24.730;2022-07-30T06:49:25;151209.38;;;38.87;28.68
5877;BME280;2964;42.144;24.730;2022-07-30T06:51:51;151327.16;;;39.34;27.26
5877;BME280;2964;42.144;24.730;2022-07-30T06:54:18;150909.94;;;37.67;29.51
5877;BME280;2964;42.144;24.730;2022-07-30T06:56:45;150840.84;;;37.39;31.27
5877;BME280;2964;42.144;24.730;2022-07-30T06:59:12;151243.94;;;39.01;27.77
5877;BME280;2964;42.144;24.730;2022-07-30T07:01:40;150447.03;;;35.81;32.32
5877;BME280;2964;42.144;24.730;2022-07-30T07:04:07;150393.31;;;35.60;31.80
5877;BME280;2964;42.144;24.730;2022-07-30T07:06:34;150911.22;;;37.67;30.03
5877;BME280;2964;42.144;24.730;2022-07-30T07:09:01;150028.00;;;34.13;34.79
5877;BME280;2964;42.144;24.730;2022-07-30T07:11:28;150496.84;;;36.01;30.91
5877;BME280;2964;42.144;24.730;2022-07-30T07:13:55;150817.84;;;37.30;29.56
5877;BME280;2964;42.144;24.730;2022-07-30T07:16:25;151259.31;;;39.07;27.28
5877;BME280;2964;42.144;24.730;2022-07-30T07:18:53;151255.47;;;39.06;27.44
5877;BME280;2964;42.144;24.730;2022-07-30T07:21:20;151242.69;;;39.00;27.87
5877;BME280;2964;42.144;24.730;2022-07-30T07:23:47;151210.63;;;38.88;28.51
5877;BME280;2964;42.144;24.730;2022-07-30T07:26:15;151045.53;;;38.21;28.41
5877;BME280;2964;42.144;24.730;2022-07-30T07:28:42;151412.94;;;39.69;26.83
5877;BME280;2964;42.144;24.730;2022-07-30T07:31:09;151648.63;;;40.63;25.56
5877;BME280;2964;42.144;24.730;2022-07-30T07:33:36;151693.53;;;40.81;25.11
5877;BME280;2964;42.144;24.730;2022-07-30T07:36:05;150963.66;;;37.89;27.40
5877;BME280;2964;42.144;24.730;2022-07-30T07:38:32;150646.41;;;36.61;30.12
5877;BME280;2964;42.144;24.730;2022-07-30T07:40:59;150691.19;;;36.79;29.75
5877;BME280;2964;42.144;24.730;2022-07-30T07:43:26;150848.47;;;37.42;29.78
5877;BME280;2964;42.144;24.730;2022-07-30T07:45:53;151060.94;;;38.28;28.11
5877;BME280;2964;42.144;24.730;2022-07-30T07:48:22;150454.72;;;35.84;31.20
5877;BME280;2964;42.144;24.730;2022-07-30T07:50:49;151095.44;;;38.41;27.56
5877;BME280;2964;42.144;24.730;2022-07-30T07:53:17;151063.47;;;38.29;27.63
5877;BME280;2964;42.144;24.730;2022-07-30T07:55:45;150821.69;;;37.32;27.29
5877;BME280;2964;42.144;24.730;2022-07-30T07:58:12;150876.66;;;37.54;29.25
5877;BME280;2964;42.144;24.730;2022-07-30T08:00:39;151130.06;;;38.55;26.67
5877;BME280;2964;42.144;24.730;2022-07-30T08:03:06;150546.75;;;36.21;29.81
5877;BME280;2964;42.144;24.730;2022-07-30T08:05:32;150829.31;;;37.35;29.14
5877;BME280;2964;42.144;24.730;2022-07-30T08:07:59;150970.06;;;37.91;28.06
5877;BME280;2964;42.144;24.730;2022-07-30T08:10:27;151123.56;;;38.53;28.33
5877;BME280;2964;42.144;24.730;2022-07-30T08:12:54;151141.53;;;38.60;27.94
5877;BME280;2964;42.144;24.730;2022-07-30T08:15:21;151063.47;;;38.29;27.31
5877;BME280;2964;42.144;24.730;2022-07-30T08:17:48;151085.22;;;38.37;27.60
5877;BME280;2964;42.144;24.730;2022-07-30T08:20:15;150948.28;;;37.82;28.88
5877;BME280;2964;42.144;24.730;2022-07-30T08:22:42;151199.16;;;38.83;27.06
5877;BME280;2964;42.144;24.730;2022-07-30T08:25:09;151100.53;;;38.43;28.62
5877;BME280;2964;42.144;24.730;2022-07-30T08:27:37;150353.75;;;35.44;31.05
5877;BME280;2964;42.144;24.730;2022-07-30T08:30:05;150689.94;;;36.79;29.09
5877;BME280;2964;42.144;24.730;2022-07-30T08:32:32;151022.53;;;38.12;28.10
5877;BME280;2964;42.144;24.730;2022-07-30T08:34:59;151123.56;;;38.53;27.84
5877;BME280;2964;42.144;24.730;2022-07-30T08:37:25;151081.38;;;38.36;28.60
5877;BME280;2964;42.144;24.730;2022-07-30T08:39:52;150393.31;;;35.60;30.35
5877;BME280;2964;42.144;24.730;2022-07-30T08:42:19;149948.88;;;33.81;32.58
5877;BME280;2964;42.144;24.730;2022-07-30T08:44:49;150265.56;;;35.08;32.61
5877;BME280;2964;42.144;24.730;2022-07-30T08:47:20;150503.22;;;36.04;30.28
5877;BME280;2964;42.144;24.730;2022-07-30T08:49:49;150668.19;;;36.70;29.32
5877;BME280;2964;42.144;24.730;2022-07-30T08:52:17;150393.31;;;35.60;30.24
5877;BME280;2964;42.144;24.730;2022-07-30T08:54:44;150411.19;;;35.67;31.21
5877;BME280;2964;42.144;24.730;2022-07-30T08:57:11;150202.97;;;34.83;31.19
5877;BME280;2964;42.144;24.730;2022-07-30T08:59:38;150284.72;;;35.16;31.50
5877;BME280;2964;42.144;24.730;2022-07-30T09:02:06;150395.88;;;35.61;30.53
5877;BME280;2964;42.144;24.730;2022-07-30T09:04:33;150622.13;;;36.51;28.92
5877;BME280;2964;42.144;24.730;2022-07-30T09:07:00;150643.88;;;36.60;28.48
5877;BME280;2964;42.144;24.730;2022-07-30T09:09:27;150596.59;;;36.41;30.03
5877;BME280;2964;42.144;24.730;2022-07-30T09:11:54;150938.06;;;37.78;28.41
5877;BME280;2964;42.144;24.730;2022-07-30T09:14:20;151040.44;;;38.19;28.26
5877;BME280;2964;42.144;24.730;2022-07-30T09:16:54;151159.47;;;38.67;25.98
5877;BME280;2964;42.144;24.730;2022-07-30T09:19:23;150592.75;;;36.40;28.38
5877;BME280;2964;42.144;24.730;2022-07-30T09:21:56;150817.84;;;37.30;26.69
5877;BME280;2964;42.144;24.730;2022-07-30T09:24:23;150602.97;;;36.44;27.26
5877;BME280;2964;42.144;24.730;2022-07-30T09:26:55;150582.53;;;36.36;28.37
5877;BME280;2964;42.144;24.730;2022-07-30T09:29:24;150665.66;;;36.69;27.41
5877;BME280;2964;42.144;24.730;2022-07-30T09:31:55;150774.28;;;37.13;26.34
5877;BME280;2964;42.144;24.730;2022-07-30T09:34:25;150843.38;;;37.40;26.60
5877;BME280;2964;42.144;24.730;2022-07-30T09:36:53;150683.56;;;36.76;26.62
5877;BME280;2964;42.144;24.730;2022-07-30T09:39:28;150702.72;;;36.84;25.35
5877;BME280;2964;42.144;24.730;2022-07-30T09:41:55;150583.81;;;36.36;26.27
5877;BME280;2964;42.144;24.730;2022-07-30T09:44:23;150540.34;;;36.19;27.20
5877;BME280;2964;42.144;24.730;2022-07-30T09:46:50;150816.50;;;37.29;25.68
5877;BME280;2964;42.144;24.730;2022-07-30T09:49:18;150485.34;;;35.97;26.68
5877;BME280;2964;42.144;24.730;2022-07-30T09:51:46;150633.66;;;36.56;25.44
5877;BME280;2964;42.144;24.730;2022-07-30T09:54:13;150337.13;;;35.37;25.41
5877;BME280;2964;42.144;24.730;2022-07-30T09:56:40;150562.06;;;36.27;26.14
5877;BME280;2964;42.144;24.730;2022-07-30T09:59:24;150611.91;;;36.47;26.83
5877;BME280;2964;42.144;24.730;2022-07-30T10:01:52;150670.75;;;36.71;26.29
5877;BME280;2964;42.144;24.730;2022-07-30T10:04:23;150546.75;;;36.21;24.89
5877;BME280;2964;42.144;24.730;2022-07-30T10:06:52;150425.28;;;35.72;26.84
5877;BME280;2964;42.144;24.730;2022-07-30T10:09:26;150321.81;;;35.31;27.98
5877;BME280;2964;42.144;24.730;2022-07-30T10:11:54;150319.22;;;35.30;28.96
5877;BME280;2964;42.144;24.730;2022-07-30T10:14:22;150102.06;;;34.42;28.59
5877;BME280;2964;42.144;24.730;2022-07-30T10:16:50;150125.06;;;34.52;28.94
5877;BME280;2964;42.144;24.730;2022-07-30T10:19:18;149973.09;;;33.91;28.59
5877;BME280;2964;42.144;24.730;2022-07-30T10:21:47;150002.44;;;34.02;28.74
5877;BME280;2964;42.144;24.730;2022-07-30T10:24:16;149902.84;;;33.62;28.75
5877;BME280;2964;42.144;24.730;2022-07-30T10:26:45;149918.22;;;33.69;29.88
5877;BME280;2964;42.144;24.730;2022-07-30T10:29:14;149856.91;;;33.44;30.28
5877;BME280;2964;42.144;24.730;2022-07-30T10:31:42;149874.78;;;33.51;30.87
5877;BME280;2964;42.144;24.730;2022-07-30T10:34:10;149936.09;;;33.76;30.67
5877;BME280;2964;42.144;24.730;2022-07-30T10:36:39;149948.88;;;33.81;29.88
5877;BME280;2964;42.144;24.730;2022-07-30T10:39:07;149849.28;;;33.41;32.00
5877;BME280;2964;42.144;24.730;2022-07-30T10:41:46;149862.06;;;33.46;31.06
5877;BME280;2964;42.144;24.730;2022-07-30T10:47:36;149763.75;;;33.06;31.56
5877;BME280;2964;42.144;24.730;2022-07-30T10:50:08;149788.00;;;33.16;30.81
5877;BME280;2964;42.144;24.730;2022-07-30T10:52:46;149798.25;;;33.20;31.08
5877;BME280;2964;42.144;24.730;2022-07-30T10:55:20;149776.56;;;33.12;31.88
5877;BME280;2964;42.144;24.730;2022-07-30T10:58:07;149759.91;;;33.05;31.75
5877;BME280;2964;42.144;24.730;2022-07-30T11:00:35;149694.88;;;32.79;31.41
5877;BME280;2964;42.144;24.730;2022-07-30T11:03:23;149698.69;;;32.80;30.36
5877;BME280;2964;42.144;24.730;2022-07-30T11:05:52;149729.31;;;32.93;31.68
5877;BME280;2964;42.144;24.730;2022-07-30T11:08:38;149734.41;;;32.95;32.73
5877;BME280;2964;42.144;24.730;2022-07-30T11:11:41;149696.13;;;32.79;33.13
5877;BME280;2964;42.144;24.730;2022-07-30T11:14:10;149675.75;;;32.71;33.66
5877;BME280;2964;42.144;24.730;2022-07-30T11:16:58;149692.34;;;32.78;33.02
5877;BME280;2964;42.144;24.730;2022-07-30T11:19:26;149716.56;;;32.87;33.36
5877;BME280;2964;42.144;24.730;2022-07-30T11:22:21;149712.72;;;32.86;33.02
5877;BME280;2964;42.144;24.730;2022-07-30T11:24:48;149673.16;;;32.70;32.56
5877;BME280;2964;42.144;24.730;2022-07-30T11:27:33;149719.09;;;32.88;32.63
5877;BME280;2964;42.144;24.730;2022-07-30T11:30:02;149735.69;;;32.95;32.54
5877;BME280;2964;42.144;24.730;2022-07-30T11:32:30;149711.47;;;32.85;33.16
5877;BME280;2964;42.144;24.730;2022-07-30T11:35:25;149793.16;;;33.18;31.92
5877;BME280;2964;42.144;24.730;2022-07-30T11:37:57;149800.78;;;33.21;30.66
5877;BME280;2964;42.144;24.730;2022-07-30T11:40:24;149770.16;;;33.09;28.79
5877;BME280;2964;42.144;24.730;2022-07-30T11:43:20;149790.59;;;33.17;31.00
5877;BME280;2964;42.144;24.730;2022-07-30T11:45:50;149772.66;;;33.10;31.79
5877;BME280;2964;42.144;24.730;2022-07-30T11:48:18;149777.81;;;33.12;32.13
5877;BME280;2964;42.144;24.730;2022-07-30T11:50:46;149767.56;;;33.08;31.40
5877;BME280;2964;42.144;24.730;2022-07-30T11:53:17;149800.78;;;33.21;30.98
5877;BME280;2964;42.144;24.730;2022-07-30T11:55:48;149780.38;;;33.13;30.58
5877;BME280;2964;42.144;24.730;2022-07-30T11:58:24;149788.00;;;33.16;30.92
5877;BME280;2964;42.144;24.730;2022-07-30T12:00:53;149785.47;;;33.15;30.02
5877;BME280;2964;42.144;24.730;2022-07-30T12:03:22;149771.41;;;33.09;30.28
5877;BME280;2964;42.144;24.730;2022-07-30T12:05:49;149763.75;;;33.06;29.91
5877;BME280;2964;42.144;24.730;2022-07-30T12:08:16;149772.66;;;33.10;29.90
5877;BME280;2964;42.144;24.730;2022-07-30T12:10:54;149795.69;;;33.19;29.41
5877;BME280;2964;42.144;24.730;2022-07-30T12:13:21;149822.47;;;33.30;28.98
5877;BME280;2964;42.144;24.730;2022-07-30T12:15:47;149851.81;;;33.42;28.83
5877;BME280;2964;42.144;24.730;2022-07-30T12:18:24;149855.63;;;33.43;29.10
5877;BME280;2964;42.144;24.730;2022-07-30T12:20:53;149887.53;;;33.56;28.67
5877;BME280;2964;42.144;24.730;2022-07-30T12:23:20;149924.59;;;33.71;29.28
5877;BME280;2964;42.144;24.730;2022-07-30T12:25:47;149920.75;;;33.70;27.71
5877;BME280;2964;42.144;24.730;2022-07-30T12:28:19;149913.13;;;33.67;27.25
5877;BME280;2964;42.144;24.730;2022-07-30T12:30:46;149887.53;;;33.56;27.15
5877;BME280;2964;42.144;24.730;2022-07-30T12:33:13;149892.63;;;33.58;27.23
5877;BME280;2964;42.144;24.730;2022-07-30T12:35:45;149897.75;;;33.60;27.47
5877;BME280;2964;42.144;24.730;2022-07-30T12:38:13;149867.16;;;33.48;27.51
5877;BME280;2964;42.144;24.730;2022-07-30T12:40:54;149873.50;;;33.51;27.46
5877;BME280;2964;42.144;24.730;2022-07-30T12:43:40;149902.84;;;33.62;27.70
5877;BME280;2964;42.144;24.730;2022-07-30T12:46:08;149853.13;;;33.42;26.86
5877;BME280;2964;42.144;24.730;2022-07-30T12:48:35;149856.91;;;33.44;26.89
5877;BME280;2964;42.144;24.730;2022-07-30T12:51:07;149856.91;;;33.44;26.82
5877;BME280;2964;42.144;24.730;2022-07-30T12:53:35;149856.91;;;33.44;26.85
5877;BME280;2964;42.144;24.730;2022-07-30T12:56:12;149874.78;;;33.51;26.21
5877;BME280;2964;42.144;24.730;2022-07-30T12:58:40;149920.75;;;33.70;26.69
5877;BME280;2964;42.144;24.730;2022-07-30T13:01:08;149900.31;;;33.61;26.73
5877;BME280;2964;42.144;24.730;2022-07-30T13:03:35;149937.38;;;33.76;26.91
5877;BME280;2964;42.144;24.730;2022-07-30T13:06:14;149938.63;;;33.77;26.76
5877;BME280;2964;42.144;24.730;2022-07-30T13:08:46;149943.72;;;33.79;26.40
5877;BME280;2964;42.144;24.730;2022-07-30T13:11:13;149936.09;;;33.76;26.89
5877;BME280;2964;42.144;24.730;2022-07-30T13:13:40;149950.13;;;33.81;26.76